Time;durP1;ratioP1;P1;durP2;ratioP2;P2;SDS_P1;SDS_P2;PMS_P1;PMS_P2;Temp;Humidity;BMP_temperature;BMP_pressure;BME280_temperature;BME280_humidity;BME280_pressure;Samples;Min_cycle;Max_cycle;Signal;HPM_P1;HPM_P2
2022/07/27 00:05:25;;;;;;;0.60;0.40;;;;;;;18.66;82.28;101546.41;21046684;28;20044;-75
2022/07/27 00:15:27;;;;;;;1.15;0.90;;;;;;;19.21;82.28;101634.59;21024402;28;20167;-75
2022/07/27 00:25:28;;;;;;;0.80;0.38;;;;;;;19.20;81.99;101627.50;21036582;28;20161;-76
2022/07/27 00:35:30;;;;;;;1.05;0.43;;;;;;;19.20;82.03;101638.28;21044052;28;20098;-75
2022/07/27 00:45:32;;;;;;;1.00;0.50;;;;;;;19.10;81.92;101615.75;21044684;28;20071;-76
2022/07/27 00:55:34;;;;;;;0.73;0.30;;;;;;;19.19;81.91;101636.56;21042620;28;20067;-76
2022/07/27 01:05:36;;;;;;;0.40;0.32;;;;;;;19.18;81.58;101629.47;21025749;28;20079;-76
2022/07/27 01:15:43;;;;;;;1.25;0.60;;;;;;;19.18;81.54;101633.97;21024294;28;20101;-75
2022/07/27 01:25:45;;;;;;;1.80;0.70;;;;;;;19.17;81.62;101638.53;21040066;28;20131;-75
2022/07/27 01:35:47;;;;;;;0.85;0.45;;;;;;;19.13;81.58;101627.13;21023628;28;20063;-75
2022/07/27 01:45:48;;;;;;;1.08;0.32;;;;;;;19.16;81.65;101631.44;21042165;28;20496;-76
2022/07/27 01:55:50;;;;;;;0.65;0.45;;;;;;;19.15;81.46;101627.00;21041084;28;20089;-76
2022/07/27 02:05:52;;;;;;;0.90;0.40;;;;;;;19.14;81.39;101614.50;21038810;28;20088;-76
2022/07/27 02:15:53;;;;;;;0.80;0.40;;;;;;;18.84;81.22;101562.91;21028867;28;20055;-75
2022/07/27 02:25:55;;;;;;;0.88;0.45;;;;;;;19.14;81.10;101611.81;21045114;28;20130;-76
2022/07/27 02:35:57;;;;;;;0.57;0.32;;;;;;;18.99;80.95;101595.88;21053114;28;20143;-77
2022/07/27 02:45:59;;;;;;;0.80;0.45;;;;;;;19.11;80.87;101612.06;21052934;28;20059;-75
2022/07/27 02:56:00;;;;;;;0.68;0.30;;;;;;;19.11;80.51;101614.75;21053089;28;20134;-75
2022/07/27 03:06:05;;;;;;;0.93;0.32;;;;;;;19.00;80.45;101604.84;21051103;28;20040;-76
2022/07/27 03:16:07;;;;;;;1.67;0.40;;;;;;;18.45;80.24;101519.34;21033399;28;20614;-75
2022/07/27 03:26:08;;;;;;;0.73;0.32;;;;;;;19.01;80.27;101606.56;21050760;28;20389;-75
2022/07/27 03:36:10;;;;;;;0.52;0.50;;;;;;;19.08;80.18;101623.13;21048309;28;20567;-75
2022/07/27 03:46:12;;;;;;;0.60;0.40;;;;;;;19.09;79.86;101635.63;21047056;28;20080;-76
2022/07/27 03:56:13;;;;;;;0.40;0.40;;;;;;;18.97;79.71;101626.66;21048393;28;20044;-76
2022/07/27 04:06:15;;;;;;;0.52;0.40;;;;;;;19.08;79.68;101633.91;21048303;28;20051;-75
2022/07/27 04:16:17;;;;;;;0.70;0.40;;;;;;;18.89;79.53;101607.53;21022982;28;20048;-75
2022/07/27 04:26:18;;;;;;;0.43;0.30;;;;;;;19.07;79.35;101640.28;21029342;28;20045;-76
2022/07/27 04:36:20;;;;;;;0.20;0.20;;;;;;;18.79;79.42;101594.81;20961621;28;20044;-75
2022/07/27 04:46:22;;;;;;;1.00;0.40;;;;;;;18.48;79.53;101572.16;20959975;28;20130;-76
2022/07/27 04:56:25;;;;;;;0.65;0.40;;;;;;;19.05;79.42;101650.34;20959426;28;20059;-77
2022/07/27 05:06:26;;;;;;;0.20;0.20;;;;;;;19.06;79.50;101662.88;20953890;28;20079;-76
2022/07/27 05:16:28;;;;;;;0.28;0.28;;;;;;;18.99;79.63;101655.25;20901583;28;20055;-75
2022/07/27 05:26:30;;;;;;;0.57;0.40;;;;;;;19.06;79.46;101676.34;20898628;28;20520;-74
2022/07/27 05:36:31;;;;;;;3.58;0.68;;;;;;;19.04;80.13;101691.81;20930652;28;20060;-76
2022/07/27 05:46:35;;;;;;;1.30;0.70;;;;;;;19.02;79.13;101697.31;20954280;28;20146;-76
2022/07/27 05:56:37;;;;;;;2.63;0.85;;;;;;;18.89;78.72;101680.38;20958482;28;20106;-76
2022/07/27 06:16:58;;;;;;;4.32;0.95;;;;;;;18.83;78.27;101706.88;20942853;28;20531;-76
2022/07/27 06:27:00;;;;;;;2.75;0.90;;;;;;;18.90;78.33;101727.97;20937010;28;20094;-77
2022/07/27 06:37:03;;;;;;;1.75;1.10;;;;;;;18.80;78.01;101728.72;20934110;28;20114;-76
2022/07/27 06:47:04;;;;;;;2.72;0.75;;;;;;;18.87;78.84;101742.53;20909367;28;20408;-76
2022/07/27 06:57:06;;;;;;;2.95;0.95;;;;;;;18.86;79.06;101754.31;20940876;28;20585;-76
2022/07/27 07:07:08;;;;;;;2.22;0.70;;;;;;;18.85;78.74;101763.41;20914899;28;20105;-76
2022/07/27 07:17:09;;;;;;;2.22;0.77;;;;;;;18.83;77.87;101763.53;20923304;28;20056;-76
2022/07/27 07:27:11;;;;;;;1.70;0.80;;;;;;;18.81;77.21;101745.75;20923214;28;20078;-76
2022/07/27 07:37:12;;;;;;;3.08;0.80;;;;;;;18.77;76.10;101736.19;20886500;28;20161;-76
2022/07/27 07:47:14;;;;;;;2.72;0.80;;;;;;;18.79;75.44;101750.41;20904500;28;20041;-77
2022/07/27 07:57:16;;;;;;;1.58;0.70;;;;;;;18.78;74.93;101748.69;20893168;28;20059;-77
2022/07/27 08:07:17;;;;;;;1.75;0.60;;;;;;;18.77;74.88;101744.25;20905132;28;20091;-76
2022/07/27 08:17:19;;;;;;;2.60;0.85;;;;;;;18.77;74.35;101739.72;20928638;28;20044;-76
2022/07/27 08:27:20;;;;;;;2.88;1.13;;;;;;;18.78;73.08;101745.97;20939409;28;20055;-76
2022/07/27 08:37:22;;;;;;;3.05;0.73;;;;;;;18.83;72.55;101752.75;20916577;28;20041;-74
2022/07/27 08:47:24;;;;;;;2.33;0.80;;;;;;;18.82;71.05;101760.94;20909499;28;20151;-75
2022/07/27 08:57:26;;;;;;;3.38;0.73;;;;;;;18.92;71.61;101743.03;20921917;28;20084;-74
2022/07/27 09:07:28;;;;;;;3.95;1.20;;;;;;;18.81;70.83;101748.44;20902030;28;20052;-75
2022/07/27 09:17:33;;;;;;;;;;;;;;;18.60;73.24;101773.44;20916314;28;20417;-74
2022/07/27 09:27:55;;;;;;;2.88;1.10;;;;;;;18.35;75.05;101780.72;20920220;28;19929;-74
2022/07/27 09:38:15;;;;;;;6.30;1.40;;;;;;;18.04;76.73;101753.41;20901766;28;20108;-74
2022/07/27 09:48:21;;;;;;;3.72;1.13;;;;;;;18.22;77.70;101774.56;20918975;28;20048;-75
2022/07/27 09:58:42;;;;;;;5.18;1.00;;;;;;;18.27;75.57;101773.22;20891096;28;20057;-75
2022/07/27 10:08:46;;;;;;;4.93;0.80;;;;;;;18.34;76.17;101770.91;20896766;28;20164;-75
2022/07/27 10:18:53;;;;;;;1.58;0.60;;;;;;;18.45;75.07;101788.09;20924252;28;20057;-75
2022/07/27 10:29:16;;;;;;;2.80;0.80;;;;;;;18.33;72.62;101763.81;20912241;28;20047;-75
2022/07/27 10:39:31;;;;;;;2.55;0.68;;;;;;;18.60;71.28;101791.44;20912880;28;20048;-75
2022/07/27 10:49:34;;;;;;;2.60;0.70;;;;;;;18.65;69.53;101791.94;20917866;28;20053;-75
2022/07/27 10:59:42;;;;;;;2.38;0.85;;;;;;;18.65;69.38;101795.50;20896213;28;20615;-74
2022/07/27 11:10:04;;;;;;;3.60;1.27;;;;;;;18.63;69.08;101792.06;20905096;28;20059;-74
2022/07/27 11:20:06;;;;;;;1.83;0.70;;;;;;;18.60;69.53;101784.22;20912127;28;20502;-75
2022/07/27 11:30:29;;;;;;;3.00;1.10;;;;;;;18.62;69.10;101784.97;20896221;28;20049;-75
2022/07/27 11:40:50;;;;;;;2.17;0.80;;;;;;;18.69;69.55;101770.00;20889325;28;20401;-75
2022/07/27 11:51:08;;;;;;;3.00;0.80;;;;;;;18.72;65.99;101752.72;20892539;28;20099;-75
2022/07/27 12:01:25;;;;;;;1.63;0.60;;;;;;;18.74;65.24;101761.53;20905869;28;20072;-75
2022/07/27 12:11:28;;;;;;;1.98;0.70;;;;;;;18.57;65.07;101754.81;20909599;28;20139;-75
2022/07/27 12:21:35;;;;;;;3.40;0.85;;;;;;;18.59;64.42;101752.84;20898145;28;20052;-75
2022/07/27 12:31:46;;;;;;;3.40;0.77;;;;;;;18.61;63.39;101753.56;20911540;28;20047;-75
2022/07/27 12:41:47;;;;;;;3.50;0.60;;;;;;;18.63;63.10;101756.13;20904837;28;20136;-75
2022/07/27 12:51:49;;;;;;;2.60;0.80;;;;;;;18.59;63.32;101750.16;20910519;28;20071;-75
2022/07/27 13:01:51;;;;;;;1.92;0.50;;;;;;;18.73;62.94;101764.38;20913279;28;20044;-76
2022/07/27 13:11:54;;;;;;;2.50;0.93;;;;;;;18.72;63.75;101768.06;20914348;28;20048;-76
2022/07/27 13:22:00;;;;;;;2.25;0.47;;;;;;;18.58;60.39;101743.03;20911764;28;20493;-74
2022/07/27 13:32:02;;;;;;;3.10;0.60;;;;;;;18.70;62.92;101750.16;20894291;28;20524;-75
2022/07/27 13:42:04;;;;;;;3.03;0.70;;;;;;;18.77;63.77;101750.50;20898940;28;20048;-76
2022/07/27 13:52:07;;;;;;;3.65;0.60;;;;;;;18.77;63.20;101757.75;20894725;28;20126;-75
2022/07/27 14:02:09;;;;;;;2.08;0.63;;;;;;;18.65;64.50;101754.19;20884430;28;20052;-76
2022/07/27 14:12:12;;;;;;;5.07;1.05;;;;;;;18.63;64.09;101754.31;20892765;28;20074;-76
2022/07/27 14:22:13;;;;;;;2.78;0.57;;;;;;;18.62;65.03;101759.81;20892399;28;20519;-76
2022/07/27 14:32:15;;;;;;;3.42;1.00;;;;;;;18.46;64.78;101742.16;20913428;28;20045;-77
2022/07/27 14:42:20;;;;;;;2.03;0.90;;;;;;;18.64;63.20;101764.13;20905932;28;20670;-77
2022/07/27 14:52:22;;;;;;;2.60;0.80;;;;;;;18.64;62.25;101764.13;20910550;28;20489;-77
2022/07/27 15:02:24;;;;;;;2.60;0.60;;;;;;;18.57;61.91;101754.81;20916791;28;20044;-76
2022/07/27 15:12:25;;;;;;;1.70;0.60;;;;;;;18.67;63.02;101755.78;20891985;28;20588;-76
2022/07/27 15:22:27;;;;;;;4.53;1.52;;;;;;;18.70;63.38;101747.44;20893698;28;20076;-76
2022/07/27 15:32:28;;;;;;;2.08;0.70;;;;;;;18.72;62.57;101749.16;20908849;28;20103;-77
2022/07/27 15:42:30;;;;;;;3.15;0.70;;;;;;;18.69;62.89;101725.97;20907792;28;20517;-77
2022/07/27 15:52:38;;;;;;;2.03;0.60;;;;;;;18.77;62.47;101728.91;20897975;28;20489;-76
2022/07/27 16:02:39;;;;;;;1.70;0.68;;;;;;;18.79;61.97;101715.31;20878175;28;20060;-77
2022/07/27 16:12:41;;;;;;;1.95;0.55;;;;;;;18.83;61.74;101716.78;20876981;28;20120;-76
2022/07/27 16:22:43;;;;;;;1.02;0.50;;;;;;;18.84;61.06;101713.13;20879623;28;20116;-78
2022/07/27 16:32:44;;;;;;;3.70;0.70;;;;;;;18.54;60.86;101691.16;20899194;28;20045;-77
2022/07/27 16:42:46;;;;;;;2.25;0.80;;;;;;;18.66;61.60;101727.09;20913875;28;20401;-77
2022/07/27 16:52:48;;;;;;;4.35;0.68;;;;;;;18.46;61.95;101707.09;20876077;28;20048;-76
2022/07/27 17:02:50;;;;;;;1.45;0.52;;;;;;;18.51;62.44;101729.16;20873677;28;20055;-75
2022/07/27 17:12:56;;;;;;;3.58;0.98;;;;;;;18.49;61.87;101730.25;20876628;28;20052;-76
2022/07/27 17:22:58;;;;;;;2.67;0.88;;;;;;;18.47;61.36;101729.50;20868996;28;20126;-75
2022/07/27 17:32:59;;;;;;;3.42;0.70;;;;;;;18.44;61.98;101721.66;20908329;28;20036;-76
2022/07/27 17:43:01;;;;;;;1.52;0.70;;;;;;;18.48;62.51;101731.22;20903860;28;20103;-76
2022/07/27 17:53:03;;;;;;;3.28;0.80;;;;;;;18.40;62.63;101732.69;20906489;28;20508;-76
2022/07/27 18:03:05;;;;;;;4.68;0.90;;;;;;;18.34;63.06;101738.56;20917675;28;20052;-76
2022/07/27 18:13:06;;;;;;;3.83;0.77;;;;;;;18.46;65.02;101735.88;20942858;28;20065;-76
2022/07/27 18:23:08;;;;;;;3.92;0.93;;;;;;;18.02;66.78;101644.88;20954267;28;20116;-76
2022/07/27 18:33:09;;;;;;;2.25;1.10;;;;;;;18.67;67.25;101734.22;20924488;28;20049;-76
2022/07/27 18:43:11;;;;;;;1.02;0.77;;;;;;;18.75;67.54;101746.22;20935755;28;20102;-75
2022/07/27 18:53:13;;;;;;;3.20;0.90;;;;;;;18.80;68.28;101760.22;20919806;28;20596;-75
2022/07/27 19:03:15;;;;;;;1.77;1.00;;;;;;;18.82;68.58;101763.63;20945766;28;20519;-75
2022/07/27 19:13:18;;;;;;;2.83;0.60;;;;;;;18.84;68.89;101772.47;20968062;28;20082;-75
2022/07/27 19:23:20;;;;;;;3.75;1.20;;;;;;;18.85;69.07;101768.78;20968512;28;20040;-75
2022/07/27 19:33:21;;;;;;;1.73;0.88;;;;;;;18.88;69.42;101794.69;20967420;28;20059;-75
2022/07/27 19:43:23;;;;;;;2.45;0.65;;;;;;;18.82;69.56;101801.41;20964430;28;20057;-75
2022/07/27 19:53:25;;;;;;;2.35;0.88;;;;;;;18.90;69.79;101819.69;21006516;28;20470;-75
2022/07/27 20:03:26;;;;;;;2.70;0.60;;;;;;;18.90;69.90;101820.53;21046642;28;20110;-75
2022/07/27 20:13:28;;;;;;;1.63;0.68;;;;;;;18.90;70.31;101822.41;21048345;28;20130;-75
2022/07/27 20:23:30;;;;;;;2.13;0.77;;;;;;;18.82;70.52;101804.09;21047002;28;20039;-76
2022/07/27 20:33:31;;;;;;;1.50;0.70;;;;;;;18.90;70.72;101809.75;21046412;28;20056;-75
2022/07/27 20:43:33;;;;;;;2.00;1.10;;;;;;;18.92;70.60;101813.19;21046056;28;20469;-76
2022/07/27 20:53:35;;;;;;;0.93;0.60;;;;;;;18.91;70.87;101805.22;21023149;28;20056;-75
2022/07/27 21:03:37;;;;;;;0.98;0.70;;;;;;;18.91;70.88;101811.47;21044210;28;20503;-75
2022/07/27 21:13:38;;;;;;;0.98;0.52;;;;;;;18.73;71.11;101775.16;21043956;28;20497;-75
2022/07/27 21:34:03;;;;;;;0.82;0.65;;;;;;;18.72;71.21;101773.44;21054126;28;20048;-75
2022/07/27 21:44:04;;;;;;;0.60;0.57;;;;;;;18.90;71.23;101809.75;21057361;28;20071;-75
2022/07/27 21:54:06;;;;;;;1.83;0.70;;;;;;;18.91;71.52;101816.88;21048024;28;20048;-75
2022/07/27 22:04:09;;;;;;;1.48;0.90;;;;;;;18.88;71.37;101805.47;21058482;28;20480;-75
2022/07/27 22:14:11;;;;;;;1.60;0.90;;;;;;;18.91;71.45;101806.06;21056907;28;20052;-75
2022/07/27 22:24:13;;;;;;;0.85;0.73;;;;;;;18.79;71.52;101790.88;21054898;28;20050;-75
2022/07/27 22:34:16;;;;;;;1.38;0.60;;;;;;;18.91;71.79;101816.88;21055924;28;20408;-75
2022/07/27 22:44:18;;;;;;;1.77;0.70;;;;;;;18.84;71.86;101813.81;21024416;28;20454;-75
2022/07/27 22:54:21;;;;;;;1.13;0.60;;;;;;;18.66;71.66;101781.03;21046210;28;20070;-75
2022/07/27 23:04:22;;;;;;;1.45;0.73;;;;;;;18.90;71.74;101831.34;21053139;28;20101;-75
2022/07/27 23:14:24;;;;;;;1.35;0.70;;;;;;;18.90;71.96;101831.34;21051505;28;20416;-75
2022/07/27 23:24:26;;;;;;;0.52;0.52;;;;;;;18.89;71.78;101832.31;21050444;28;20062;-75
2022/07/27 23:34:30;;;;;;;1.38;0.70;;;;;;;18.90;71.63;101825.09;21050711;28;20040;-75
2022/07/27 23:44:31;;;;;;;1.90;0.50;;;;;;;18.89;71.79;101820.69;21040249;28;20062;-75
2022/07/27 23:54:33;;;;;;;1.10;0.60;;;;;;;18.88;71.76;101822.50;21049158;28;20055;-75
